createdAt,value
2017-12-27T00:00:21.177Z,93.89
2017-12-27T00:01:21.109Z,94.27
2017-12-27T00:02:21.006Z,95.50
2017-12-27T00:03:20.931Z,96.91
2017-12-27T00:04:20.840Z,97.39
2017-12-27T00:05:20.757Z,98.57
2017-12-27T00:06:20.667Z,98.76
2017-12-27T00:07:20.588Z,98.19
2017-12-27T00:08:20.489Z,98.28
2017-12-27T00:09:20.437Z,98.19
2017-12-27T00:10:20.340Z,98.10
2017-12-27T00:11:20.282Z,97.72
2017-12-27T00:12:20.170Z,97.81
2017-12-27T00:13:20.075Z,97.63
2017-12-27T00:14:20.020Z,97.72
2017-12-27T00:15:19.916Z,97.44
2017-12-27T00:16:19.813Z,97.91
2017-12-27T00:17:19.750Z,97.44
2017-12-27T00:18:19.660Z,97.63
2017-12-27T00:19:19.608Z,97.53
2017-12-27T00:20:19.490Z,97.81
2017-12-27T00:21:19.410Z,96.40
2017-12-27T00:22:19.311Z,95.45
2017-12-27T00:23:19.234Z,94.51
2017-12-27T00:24:19.134Z,94.41
2017-12-27T00:25:19.067Z,94.22
2017-12-27T00:26:18.971Z,94.89
2017-12-27T00:27:18.910Z,95.64
2017-12-27T00:28:18.834Z,96.78
2017-12-27T00:29:18.727Z,97.53
2017-12-27T00:30:18.639Z,97.63
2017-12-27T00:31:18.567Z,97.15
2017-12-27T00:32:18.456Z,97.72
2017-12-27T00:33:18.394Z,97.72
2017-12-27T00:34:18.300Z,97.81
2017-12-27T00:35:18.215Z,98.28
2017-12-27T00:36:18.135Z,98.66
2017-12-27T00:37:18.069Z,98.95
2017-12-27T00:38:17.972Z,98.10
2017-12-27T00:39:17.891Z,98.00
2017-12-27T00:40:17.784Z,98.19
2017-12-27T00:41:17.707Z,98.00
2017-12-27T00:42:17.619Z,97.91
2017-12-27T00:43:17.543Z,98.28
2017-12-27T00:44:17.446Z,98.28
2017-12-27T00:45:17.371Z,98.28
2017-12-27T00:46:17.271Z,98.28
2017-12-27T00:47:17.202Z,98.76
2017-12-27T00:48:17.123Z,98.85
2017-12-27T00:49:17.030Z,98.66
2017-12-27T00:50:16.950Z,97.91
2017-12-27T00:51:16.859Z,98.57
2017-12-27T00:52:16.769Z,98.66
2017-12-27T00:53:16.715Z,98.10
2017-12-27T00:54:16.600Z,98.00
2017-12-27T00:55:16.535Z,98.28
2017-12-27T00:56:16.458Z,98.28
2017-12-27T00:57:16.365Z,97.91
2017-12-27T00:58:16.279Z,96.40
2017-12-27T00:59:16.202Z,95.64
2017-12-27T01:00:16.100Z,95.73
2017-12-27T01:01:16.021Z,95.45
2017-12-27T01:02:15.931Z,94.41
2017-12-27T01:03:15.860Z,94.13
2017-12-27T01:04:15.765Z,94.22
2017-12-27T01:05:15.709Z,95.07
2017-12-27T01:06:15.594Z,95.17
2017-12-27T01:07:15.515Z,95.54
2017-12-27T01:08:15.428Z,96.02
2017-12-27T01:09:15.347Z,96.21
2017-12-27T01:10:15.280Z,95.26
2017-12-27T01:11:16.047Z,94.41
2017-12-27T01:12:15.101Z,94.41
2017-12-27T01:13:15.021Z,95.07
2017-12-27T01:14:14.924Z,95.54
2017-12-27T01:15:14.853Z,95.54
2017-12-27T01:16:14.770Z,95.83
2017-12-27T01:17:14.687Z,96.21
2017-12-27T01:18:14.577Z,96.11
2017-12-27T01:19:14.503Z,94.98
2017-12-27T01:20:14.406Z,94.89
2017-12-27T01:21:14.343Z,94.79
2017-12-27T01:22:14.239Z,96.02
2017-12-27T01:23:14.173Z,98.28
2017-12-27T01:24:14.091Z,98.00
2017-12-27T01:25:13.991Z,98.95
2017-12-27T01:26:13.904Z,98.76
2017-12-27T01:27:13.828Z,98.76
2017-12-27T01:28:13.734Z,99.14
2017-12-27T01:29:13.668Z,99.23
2017-12-27T01:30:13.564Z,98.47
2017-12-27T01:31:13.506Z,99.04
2017-12-27T01:32:13.403Z,98.66
2017-12-27T01:33:13.325Z,98.76
2017-12-27T01:34:13.233Z,98.76
2017-12-27T01:35:13.158Z,99.14
2017-12-27T01:36:13.069Z,98.76
2017-12-27T01:37:12.990Z,98.66
2017-12-27T01:38:12.890Z,98.19
2017-12-27T01:39:12.830Z,97.91
2017-12-27T01:40:12.727Z,97.91
2017-12-27T01:41:12.658Z,98.57
2017-12-27T01:42:12.557Z,98.19
2017-12-27T01:43:12.484Z,98.85
2017-12-27T01:44:12.386Z,98.85
2017-12-27T01:45:12.299Z,98.85
2017-12-27T01:46:12.214Z,98.76
2017-12-27T01:47:12.138Z,98.95
2017-12-27T01:48:12.073Z,98.66
2017-12-27T01:49:11.967Z,98.24
2017-12-27T01:50:11.888Z,98.66
2017-12-27T01:51:11.809Z,97.81
2017-12-27T01:52:11.724Z,98.52
2017-12-27T01:53:11.662Z,98.00
2017-12-27T01:54:11.536Z,97.96
2017-12-27T01:55:11.472Z,98.14
2017-12-27T01:56:11.372Z,98.33
2017-12-27T01:57:11.307Z,98.05
2017-12-27T01:58:11.205Z,97.77
2017-12-27T01:59:12.132Z,97.77
2017-12-27T02:00:11.041Z,97.39
2017-12-27T02:01:10.953Z,97.49
2017-12-27T02:02:10.877Z,97.30
2017-12-27T02:03:10.785Z,97.49
2017-12-27T02:04:10.711Z,97.96
2017-12-27T02:05:10.625Z,97.49
2017-12-27T02:06:10.536Z,97.77
2017-12-27T02:07:10.471Z,97.77
2017-12-27T02:08:10.377Z,97.39
2017-12-27T02:09:10.292Z,96.64
2017-12-27T02:10:10.201Z,96.83
2017-12-27T02:11:10.116Z,96.64
2017-12-27T02:12:10.026Z,97.30
2017-12-27T02:13:09.954Z,96.73
2017-12-27T02:14:09.871Z,97.01
2017-12-27T02:15:09.793Z,97.01
2017-12-27T02:16:09.695Z,96.92
2017-12-27T02:17:09.634Z,96.45
2017-12-27T02:18:09.525Z,96.83
2017-12-27T02:19:09.453Z,96.83
2017-12-27T02:20:09.371Z,97.20
2017-12-27T02:21:09.281Z,97.11
2017-12-27T02:22:09.192Z,96.83
2017-12-27T02:23:09.110Z,96.64
2017-12-27T02:24:09.042Z,96.54
2017-12-27T02:25:08.948Z,96.73
2017-12-27T02:26:08.850Z,96.26
2017-12-27T02:27:08.784Z,96.26
2017-12-27T02:28:08.681Z,96.16
2017-12-27T02:29:08.599Z,96.64
2017-12-27T02:30:08.508Z,96.16
2017-12-27T02:31:08.429Z,96.16
2017-12-27T02:32:08.350Z,96.16
2017-12-27T02:33:08.279Z,96.92
2017-12-27T02:34:08.188Z,96.73
2017-12-27T02:35:08.117Z,96.73
2017-12-27T02:36:08.016Z,96.64
2017-12-27T02:37:07.957Z,96.45
2017-12-27T02:38:07.845Z,96.35
2017-12-27T02:39:07.763Z,96.64
2017-12-27T02:40:07.673Z,96.26
2017-12-27T02:41:07.595Z,96.45
2017-12-27T02:42:07.512Z,96.26
2017-12-27T02:43:07.441Z,96.54
2017-12-27T02:44:07.338Z,96.64
2017-12-27T02:45:07.255Z,96.35
2017-12-27T02:46:07.170Z,96.64
2017-12-27T02:47:07.085Z,96.64
2017-12-27T02:48:07.009Z,96.07
2017-12-27T02:49:06.920Z,95.69
2017-12-27T02:50:06.832Z,96.35
2017-12-27T02:51:06.764Z,95.31
2017-12-27T02:52:06.668Z,95.97
2017-12-27T02:53:06.598Z,95.97
2017-12-27T02:54:06.491Z,95.88
2017-12-27T02:55:06.425Z,95.97
2017-12-27T02:56:06.319Z,96.35
2017-12-27T02:57:06.251Z,95.50
2017-12-27T02:58:06.161Z,95.88
2017-12-27T02:59:06.085Z,95.59
2017-12-27T03:00:05.988Z,95.59
2017-12-27T03:01:05.923Z,95.69
2017-12-27T03:02:05.825Z,95.31
2017-12-27T03:03:05.752Z,95.03
2017-12-27T03:04:05.663Z,94.93
2017-12-27T03:05:05.590Z,94.74
2017-12-27T03:06:05.498Z,95.21
2017-12-27T03:07:05.425Z,95.50
2017-12-27T03:08:05.323Z,95.69
2017-12-27T03:09:05.243Z,96.35
2017-12-27T03:10:05.146Z,95.83
2017-12-27T03:11:05.630Z,96.49
2017-12-27T03:12:04.983Z,96.68
2017-12-27T03:13:04.922Z,96.96
2017-12-27T03:14:04.822Z,97.34
2017-12-27T03:15:04.748Z,97.34
2017-12-27T03:16:04.651Z,97.53
2017-12-27T03:17:04.578Z,97.53
2017-12-27T03:18:04.486Z,97.72
2017-12-27T03:19:04.402Z,97.53
2017-12-27T03:20:04.299Z,98.10
2017-12-27T03:21:04.243Z,97.91
2017-12-27T03:22:04.166Z,98.95
2017-12-27T03:23:04.079Z,97.91
2017-12-27T03:24:03.984Z,98.38
2017-12-27T03:25:03.903Z,98.76
2017-12-27T03:26:03.807Z,99.04
2017-12-27T03:27:03.737Z,98.57
2017-12-27T03:28:03.637Z,98.00
2017-12-27T03:29:03.567Z,98.10
2017-12-27T03:30:03.459Z,99.14
2017-12-27T03:31:03.398Z,98.19
2017-12-27T03:32:03.319Z,98.10
2017-12-27T03:33:03.232Z,98.10
2017-12-27T03:34:03.147Z,98.47
2017-12-27T03:35:03.052Z,97.91
2017-12-27T03:36:02.967Z,97.91
2017-12-27T03:37:02.992Z,98.19
2017-12-27T03:38:04.617Z,98.10
2017-12-27T03:39:02.787Z,97.91
2017-12-27T03:40:02.621Z,98.28
2017-12-27T03:41:02.548Z,98.19
2017-12-27T03:42:02.468Z,98.85
2017-12-27T03:43:02.375Z,98.47
2017-12-27T03:44:02.285Z,98.19
2017-12-27T03:45:03.202Z,98.00
2017-12-27T03:46:02.113Z,97.91
2017-12-27T03:47:02.039Z,98.00
2017-12-27T03:48:01.947Z,98.38
2017-12-27T03:49:01.872Z,98.28
2017-12-27T03:50:01.807Z,98.66
2017-12-27T03:51:01.720Z,98.66
2017-12-27T03:52:01.608Z,98.10
2017-12-27T03:53:01.542Z,98.10
2017-12-27T03:54:01.436Z,98.47
2017-12-27T03:55:01.359Z,97.81
2017-12-27T03:56:01.265Z,98.19
2017-12-27T03:57:01.197Z,97.53
2017-12-27T03:58:01.097Z,97.53
2017-12-27T03:59:01.022Z,97.81
2017-12-27T04:00:00.926Z,97.72
2017-12-27T04:01:00.863Z,96.96
2017-12-27T04:02:00.767Z,96.54
2017-12-27T04:03:00.681Z,95.36
2017-12-27T04:04:00.604Z,95.54
2017-12-27T04:05:00.525Z,95.73
2017-12-27T04:06:00.429Z,94.60
2017-12-27T04:07:00.360Z,94.79
2017-12-27T04:08:00.257Z,95.64
2017-12-27T04:09:00.181Z,96.02
2017-12-27T04:10:00.090Z,96.40
2017-12-27T04:11:00.008Z,97.06
2017-12-27T04:11:59.934Z,97.06
2017-12-27T04:12:59.841Z,96.96
2017-12-27T04:13:59.753Z,96.40
2017-12-27T04:14:59.676Z,96.59
2017-12-27T04:15:59.592Z,96.96
2017-12-27T04:16:59.506Z,97.72
2017-12-27T04:17:59.416Z,97.63
2017-12-27T04:18:59.352Z,97.72
2017-12-27T04:19:59.245Z,97.44
2017-12-27T04:20:59.164Z,97.63
2017-12-27T04:21:59.078Z,97.91
2017-12-27T04:22:59.002Z,97.53
2017-12-27T04:23:58.920Z,96.87
2017-12-27T04:24:58.826Z,96.78
2017-12-27T04:25:58.752Z,96.96
2017-12-27T04:26:58.668Z,96.87
2017-12-27T04:27:58.579Z,96.59
2017-12-27T04:28:58.495Z,96.68
2017-12-27T04:29:58.402Z,96.49
2017-12-27T04:30:58.329Z,96.49
2017-12-27T04:31:58.236Z,96.59
2017-12-27T04:32:58.168Z,96.21
2017-12-27T04:33:58.067Z,96.59
2017-12-27T04:34:57.991Z,96.49
2017-12-27T04:35:57.901Z,96.40
2017-12-27T04:36:57.825Z,96.78
2017-12-27T04:37:57.732Z,96.49
2017-12-27T04:38:57.646Z,96.21
2017-12-27T04:39:57.553Z,96.11
2017-12-27T04:40:57.494Z,94.41
2017-12-27T04:41:57.404Z,93.84
2017-12-27T04:42:57.322Z,93.47
2017-12-27T04:43:57.222Z,93.47
2017-12-27T04:44:57.153Z,93.75
2017-12-27T04:45:57.059Z,93.75
2017-12-27T04:46:56.989Z,93.47
2017-12-27T04:47:56.893Z,93.56
2017-12-27T04:48:56.837Z,93.66
2017-12-27T04:49:56.727Z,93.28
2017-12-27T04:50:56.635Z,93.84
2017-12-27T04:51:56.565Z,93.94
2017-12-27T04:52:56.475Z,93.66
2017-12-27T04:53:56.381Z,93.66
2017-12-27T04:54:56.311Z,93.75
2017-12-27T04:55:56.220Z,93.28
2017-12-27T04:56:56.140Z,92.61
2017-12-27T04:57:56.040Z,91.96
2017-12-27T04:58:55.969Z,91.01
2017-12-27T04:59:55.872Z,91.43
2017-12-27T05:00:56.798Z,91.48
2017-12-27T05:01:55.701Z,91.10
2017-12-27T05:02:55.642Z,91.15
2017-12-27T05:03:55.545Z,91.96
2017-12-27T05:04:55.468Z,92.24
2017-12-27T05:05:55.373Z,93.28
2017-12-27T05:06:55.296Z,93.66
2017-12-27T05:07:55.197Z,93.37
2017-12-27T05:08:55.130Z,93.66
2017-12-27T05:09:55.032Z,93.84
2017-12-27T05:10:54.951Z,93.66
2017-12-27T05:11:54.868Z,93.94
2017-12-27T05:12:54.784Z,93.84
2017-12-27T05:13:54.691Z,93.37
2017-12-27T05:14:54.628Z,93.37
2017-12-27T05:15:54.525Z,93.56
2017-12-27T05:16:54.453Z,93.47
2017-12-27T05:17:54.375Z,93.56
2017-12-27T05:18:54.283Z,94.79
2017-12-27T05:19:54.198Z,94.98
2017-12-27T05:20:54.132Z,95.92
2017-12-27T05:21:54.037Z,95.36
2017-12-27T05:22:53.948Z,96.02
2017-12-27T05:23:53.857Z,96.11
2017-12-27T05:24:53.781Z,96.21
2017-12-27T05:25:53.684Z,96.02
2017-12-27T05:26:53.634Z,95.73
2017-12-27T05:27:53.510Z,95.54
2017-12-27T05:28:53.449Z,94.89
2017-12-27T05:29:53.351Z,94.41
2017-12-27T05:30:53.281Z,94.32
2017-12-27T05:31:53.176Z,94.41
2017-12-27T05:32:53.101Z,94.60
2017-12-27T05:33:53.006Z,94.22
2017-12-27T05:34:52.930Z,95.07
2017-12-27T05:35:52.851Z,95.45
2017-12-27T05:36:52.776Z,95.54
2017-12-27T05:37:52.685Z,95.73
2017-12-27T05:38:52.593Z,95.64
2017-12-27T05:39:52.510Z,95.54
2017-12-27T05:40:52.436Z,95.45
2017-12-27T05:41:52.337Z,95.45
2017-12-27T05:42:52.266Z,95.54
2017-12-27T05:43:52.176Z,95.50
2017-12-27T05:44:52.091Z,95.54
2017-12-27T05:45:52.016Z,95.78
2017-12-27T05:46:51.922Z,94.84
2017-12-27T05:47:51.829Z,94.27
2017-12-27T05:48:51.758Z,94.08
2017-12-27T05:49:51.656Z,93.23
2017-12-27T05:50:51.596Z,92.76
2017-12-27T05:51:51.498Z,93.09
2017-12-27T05:52:51.423Z,93.18
2017-12-27T05:53:51.328Z,93.56
2017-12-27T05:54:51.248Z,93.75
2017-12-27T05:55:51.160Z,94.22
2017-12-27T05:56:51.099Z,94.41
2017-12-27T05:57:50.979Z,94.70
2017-12-27T05:58:50.907Z,94.74
2017-12-27T05:59:50.818Z,94.65
2017-12-27T06:00:50.745Z,94.60
2017-12-27T06:01:50.659Z,94.32
2017-12-27T06:02:50.582Z,94.46
2017-12-27T06:03:50.490Z,94.46
2017-12-27T06:04:50.410Z,94.65
2017-12-27T06:05:50.314Z,94.56
2017-12-27T06:06:50.251Z,93.61
2017-12-27T06:07:50.148Z,93.80
2017-12-27T06:08:50.087Z,93.23
2017-12-27T06:09:49.978Z,93.23
2017-12-27T06:10:49.901Z,93.89
2017-12-27T06:11:49.813Z,93.80
2017-12-27T06:12:49.739Z,93.32
2017-12-27T06:13:49.646Z,93.84
2017-12-27T06:14:49.572Z,94.08
2017-12-27T06:15:49.477Z,94.32
2017-12-27T06:16:49.406Z,94.22
2017-12-27T06:17:49.299Z,94.51
2017-12-27T06:18:49.244Z,95.45
2017-12-27T06:19:49.139Z,95.64
2017-12-27T06:20:49.061Z,95.92
2017-12-27T06:21:48.974Z,95.83
2017-12-27T06:22:48.908Z,96.59
2017-12-27T06:23:48.809Z,96.40
2017-12-27T06:24:48.727Z,96.40
2017-12-27T06:25:48.644Z,96.78
2017-12-27T06:26:48.548Z,96.40
2017-12-27T06:27:48.455Z,96.40
2017-12-27T06:28:48.389Z,96.59
2017-12-27T06:29:48.303Z,96.21
2017-12-27T06:30:48.216Z,96.40
2017-12-27T06:31:48.141Z,96.68
2017-12-27T06:32:48.044Z,95.73
2017-12-27T06:33:47.965Z,95.36
2017-12-27T06:34:47.886Z,95.83
2017-12-27T06:35:47.789Z,95.64
2017-12-27T06:36:47.718Z,95.17
2017-12-27T06:37:47.620Z,94.98
2017-12-27T06:38:47.553Z,94.60
2017-12-27T06:39:47.469Z,94.22
2017-12-27T06:40:47.392Z,93.70
2017-12-27T06:41:47.292Z,93.70
2017-12-27T06:42:47.199Z,93.51
2017-12-27T06:43:47.130Z,93.28
2017-12-27T06:44:47.048Z,93.28
2017-12-27T06:45:46.952Z,93.28
2017-12-27T06:46:46.862Z,93.66
2017-12-27T06:47:46.800Z,93.66
2017-12-27T06:48:46.707Z,93.28
2017-12-27T06:49:46.616Z,93.28
2017-12-27T06:50:46.547Z,92.99
2017-12-27T06:51:46.442Z,92.90
2017-12-27T06:52:46.365Z,93.37
2017-12-27T06:53:46.272Z,93.84
2017-12-27T06:54:46.264Z,93.75
2017-12-27T06:55:46.118Z,93.75
2017-12-27T06:56:46.032Z,93.94
2017-12-27T06:57:45.942Z,93.56
2017-12-27T06:58:45.863Z,93.47
2017-12-27T06:59:45.780Z,93.84
2017-12-27T07:00:45.697Z,93.75
2017-12-27T07:01:45.593Z,94.03
2017-12-27T07:02:45.516Z,94.41
2017-12-27T07:03:45.445Z,95.54
2017-12-27T07:04:45.350Z,95.73
2017-12-27T07:05:45.256Z,95.73
2017-12-27T07:06:45.198Z,95.45
2017-12-27T07:07:45.092Z,95.64
2017-12-27T07:08:45.027Z,95.73
2017-12-27T07:09:44.972Z,95.92
2017-12-27T07:10:44.856Z,95.64
2017-12-27T07:11:44.752Z,96.59
2017-12-27T07:12:44.725Z,96.68
2017-12-27T07:13:44.594Z,96.59
2017-12-27T07:14:44.518Z,96.96
2017-12-27T07:15:44.429Z,97.25
2017-12-27T07:16:44.362Z,97.63
2017-12-27T07:17:44.256Z,97.44
2017-12-27T07:18:44.172Z,97.53
2017-12-27T07:19:44.094Z,97.53
2017-12-27T07:20:44.003Z,97.53
2017-12-27T07:21:43.913Z,97.81
2017-12-27T07:22:43.839Z,97.81
2017-12-27T07:23:43.749Z,97.81
2017-12-27T07:24:43.664Z,97.63
2017-12-27T07:25:43.587Z,97.44
2017-12-27T07:26:43.511Z,97.91
2017-12-27T07:27:43.410Z,97.15
2017-12-27T07:28:43.332Z,96.87
2017-12-27T07:29:43.249Z,96.96
2017-12-27T07:30:43.174Z,97.15
2017-12-27T07:31:43.068Z,97.72
2017-12-27T07:32:43.012Z,97.72
2017-12-27T07:33:42.899Z,97.63
2017-12-27T07:34:42.832Z,97.15
2017-12-27T07:35:42.730Z,97.63
2017-12-27T07:36:42.664Z,97.63
2017-12-27T07:37:42.562Z,97.44
2017-12-27T07:38:42.497Z,97.53
2017-12-27T07:39:42.402Z,97.53
2017-12-27T07:40:42.330Z,97.72
2017-12-27T07:41:42.231Z,97.58
2017-12-27T07:42:42.163Z,97.39
2017-12-27T07:43:42.064Z,96.64
2017-12-27T07:44:41.998Z,96.07
2017-12-27T07:45:41.895Z,95.88
2017-12-27T07:46:41.810Z,95.31
2017-12-27T07:47:41.727Z,96.07
2017-12-27T07:48:41.650Z,95.88
2017-12-27T07:49:41.566Z,95.59
2017-12-27T07:50:41.480Z,95.40
2017-12-27T07:51:41.387Z,95.12
2017-12-27T07:52:41.323Z,94.56
2017-12-27T07:53:41.211Z,93.85
2017-12-27T07:54:41.154Z,94.23
2017-12-27T07:55:41.063Z,94.32
2017-12-27T07:56:40.969Z,94.04
2017-12-27T07:57:40.895Z,93.28
2017-12-27T07:58:40.819Z,93.66
2017-12-27T07:59:40.711Z,92.90
2017-12-27T08:00:41.645Z,92.05
2017-12-27T08:01:40.545Z,91.58
2017-12-27T08:02:40.500Z,91.39
2017-12-27T08:03:40.396Z,91.20
2017-12-27T08:04:40.303Z,92.14
2017-12-27T08:05:40.220Z,91.96
2017-12-27T08:06:40.132Z,92.05
2017-12-27T08:07:40.047Z,93.09
2017-12-27T08:08:39.977Z,92.90
2017-12-27T08:09:39.875Z,92.24
2017-12-27T08:10:39.808Z,91.20
2017-12-27T08:11:39.711Z,90.91
2017-12-27T08:12:39.636Z,90.25
2017-12-27T08:13:39.538Z,90.16
2017-12-27T08:14:39.458Z,89.50
2017-12-27T08:15:39.363Z,89.12
2017-12-27T08:16:39.293Z,89.31
2017-12-27T08:17:39.209Z,89.40
2017-12-27T08:18:39.133Z,89.35
2017-12-27T08:19:39.042Z,89.06
2017-12-27T08:20:38.957Z,88.49
2017-12-27T08:21:38.872Z,87.84
2017-12-27T08:22:38.791Z,87.84
2017-12-27T08:23:38.706Z,87.65
2017-12-27T08:24:38.636Z,87.93
2017-12-27T08:25:38.529Z,88.59
2017-12-27T08:26:38.455Z,88.31
2017-12-27T08:27:38.363Z,87.84
2017-12-27T08:28:38.298Z,87.65
2017-12-27T08:29:38.199Z,87.08
2017-12-27T08:30:38.131Z,86.79
2017-12-27T08:31:38.045Z,87.17
2017-12-27T08:32:37.949Z,86.79
2017-12-27T08:33:37.866Z,86.89
2017-12-27T08:34:37.786Z,86.79
2017-12-27T08:35:37.693Z,87.36
2017-12-27T08:36:37.620Z,87.27
2017-12-27T08:37:37.529Z,86.98
2017-12-27T08:38:37.448Z,87.46
2017-12-27T08:39:37.368Z,87.55
2017-12-27T08:40:37.288Z,87.27
2017-12-27T08:41:37.200Z,87.27
2017-12-27T08:42:37.125Z,86.98
2017-12-27T08:43:37.041Z,86.89
2017-12-27T08:44:36.961Z,87.27
2017-12-27T08:45:36.863Z,87.27
2017-12-27T08:46:36.783Z,87.55
2017-12-27T08:47:36.699Z,87.55
2017-12-27T08:48:36.633Z,86.89
2017-12-27T08:49:36.533Z,87.27
2017-12-27T08:50:37.490Z,87.46
2017-12-27T08:51:36.366Z,87.93
2017-12-27T08:52:37.289Z,87.27
2017-12-27T08:53:36.183Z,86.70
2017-12-27T08:54:36.106Z,86.98
2017-12-27T08:55:36.027Z,86.89
2017-12-27T08:56:35.955Z,86.98
2017-12-27T08:57:35.853Z,87.17
2017-12-27T08:58:35.781Z,86.32
2017-12-27T08:59:35.685Z,86.32
2017-12-27T09:00:35.621Z,86.51
2017-12-27T09:01:35.533Z,86.60
2017-12-27T09:02:35.444Z,86.89
2017-12-27T09:03:35.350Z,86.04
2017-12-27T09:04:35.292Z,85.85
2017-12-27T09:05:35.193Z,85.85
2017-12-27T09:06:35.126Z,86.13
2017-12-27T09:07:35.045Z,85.85
2017-12-27T09:08:34.944Z,85.04
2017-12-27T09:09:34.858Z,85.32
2017-12-27T09:10:34.789Z,85.70
2017-12-27T09:11:34.693Z,86.04
2017-12-27T09:12:34.620Z,85.32
2017-12-27T09:13:34.527Z,85.70
2017-12-27T09:14:34.448Z,84.47
2017-12-27T09:15:34.358Z,84.66
2017-12-27T09:16:34.278Z,84.56
2017-12-27T09:17:34.186Z,84.47
2017-12-27T09:18:34.121Z,84.38
2017-12-27T09:19:34.028Z,84.75
2017-12-27T09:20:33.973Z,85.23
2017-12-27T09:21:33.860Z,84.19
2017-12-27T09:22:33.777Z,84.75
2017-12-27T09:23:33.699Z,84.00
2017-12-27T09:24:33.631Z,84.19
2017-12-27T09:25:33.521Z,83.90
2017-12-27T09:26:33.456Z,83.81
2017-12-27T09:27:33.353Z,84.00
2017-12-27T09:28:33.298Z,83.43
2017-12-27T09:29:33.187Z,83.81
2017-12-27T09:30:33.132Z,83.52
2017-12-27T09:31:33.028Z,83.05
2017-12-27T09:32:33.965Z,83.33
2017-12-27T09:33:32.858Z,83.43
2017-12-27T09:34:32.785Z,83.81
2017-12-27T09:35:32.692Z,83.90
2017-12-27T09:36:32.641Z,83.52
2017-12-27T09:37:32.547Z,83.43
2017-12-27T09:38:32.451Z,83.52
2017-12-27T09:39:32.363Z,83.71
2017-12-27T09:40:32.291Z,83.43
2017-12-27T09:41:32.205Z,83.43
2017-12-27T09:42:32.131Z,83.71
2017-12-27T09:43:32.051Z,84.09
2017-12-27T09:44:31.981Z,83.90
2017-12-27T09:45:31.871Z,83.90
2017-12-27T09:46:31.802Z,82.86
2017-12-27T09:47:31.709Z,83.24
2017-12-27T09:48:31.627Z,82.29
2017-12-27T09:49:31.546Z,82.48
2017-12-27T09:50:31.480Z,82.20
2017-12-27T09:51:31.365Z,82.39
2017-12-27T09:52:31.299Z,82.48
2017-12-27T09:53:31.207Z,82.20
2017-12-27T09:54:31.130Z,81.63
2017-12-27T09:55:31.036Z,82.01
2017-12-27T09:56:30.973Z,81.92
2017-12-27T09:57:30.871Z,81.63
2017-12-27T09:58:30.820Z,81.34
2017-12-27T09:59:30.722Z,81.53
2017-12-27T10:00:30.636Z,81.44
2017-12-27T10:01:30.555Z,81.29
2017-12-27T10:02:30.459Z,80.82
2017-12-27T10:03:30.385Z,80.63
2017-12-27T10:04:30.313Z,80.34
2017-12-27T10:05:30.211Z,80.44
2017-12-27T10:06:30.135Z,79.68
2017-12-27T10:07:30.040Z,78.73
2017-12-27T10:08:29.979Z,78.92
2017-12-27T10:09:29.896Z,78.83
2017-12-27T10:10:29.821Z,79.87
2017-12-27T10:11:29.718Z,79.77
2017-12-27T10:12:29.649Z,79.87
2017-12-27T10:13:29.555Z,79.68
2017-12-27T10:14:29.482Z,80.06
2017-12-27T10:15:29.382Z,80.82
2017-12-27T10:16:29.339Z,79.68
2017-12-27T10:17:29.224Z,79.87
2017-12-27T10:18:29.171Z,79.49
2017-12-27T10:19:29.069Z,79.21
2017-12-27T10:20:28.996Z,79.21
2017-12-27T10:21:28.887Z,78.92
2017-12-27T10:22:28.827Z,78.45
2017-12-27T10:23:28.741Z,78.54
2017-12-27T10:24:28.684Z,79.21
2017-12-27T10:25:28.583Z,79.58
2017-12-27T10:26:28.487Z,79.77
2017-12-27T10:27:28.404Z,79.58
2017-12-27T10:28:28.332Z,79.58
2017-12-27T10:29:28.230Z,79.77
2017-12-27T10:30:28.173Z,79.68
2017-12-27T10:31:28.090Z,79.58
2017-12-27T10:32:28.010Z,80.91
2017-12-27T10:33:27.930Z,80.58
2017-12-27T10:34:27.830Z,79.58
2017-12-27T10:35:27.740Z,79.77
2017-12-27T10:36:27.678Z,79.68
2017-12-27T10:37:27.575Z,80.25
2017-12-27T10:38:27.518Z,81.67
2017-12-27T10:39:27.429Z,81.20
2017-12-27T10:40:27.337Z,80.63
2017-12-27T10:41:27.251Z,81.86
2017-12-27T10:42:27.188Z,82.14
2017-12-27T10:43:27.118Z,82.43
2017-12-27T10:44:27.014Z,80.82
2017-12-27T10:45:26.938Z,79.87
2017-12-27T10:46:26.847Z,79.68
2017-12-27T10:47:26.761Z,80.44
2017-12-27T10:48:26.685Z,80.82
2017-12-27T10:49:26.597Z,79.58
2017-12-27T10:50:26.517Z,79.02
2017-12-27T10:51:26.436Z,79.96
2017-12-27T10:52:26.360Z,79.49
2017-12-27T10:53:26.274Z,80.15
2017-12-27T10:54:26.199Z,80.15
2017-12-27T10:55:26.113Z,79.02
2017-12-27T10:56:26.027Z,79.77
2017-12-27T10:57:25.930Z,79.68
2017-12-27T10:58:25.859Z,79.02
2017-12-27T10:59:25.765Z,79.21
2017-12-27T11:00:25.714Z,80.34
2017-12-27T11:01:25.611Z,80.53
2017-12-27T11:02:25.537Z,80.44
2017-12-27T11:03:25.449Z,79.49
2017-12-27T11:04:25.382Z,79.49
2017-12-27T11:05:25.277Z,79.77
2017-12-27T11:06:25.202Z,80.15
2017-12-27T11:07:25.110Z,80.34
2017-12-27T11:08:25.060Z,80.72
2017-12-27T11:09:24.962Z,82.05
2017-12-27T11:10:24.876Z,80.82
2017-12-27T11:11:24.791Z,80.34
2017-12-27T11:12:25.716Z,79.87
2017-12-27T11:13:24.615Z,79.77
2017-12-27T11:14:24.559Z,80.63
2017-12-27T11:15:24.486Z,79.72
2017-12-27T11:16:24.414Z,80.48
2017-12-27T11:17:24.301Z,79.82
2017-12-27T11:18:24.234Z,79.30
2017-12-27T11:19:24.134Z,77.83
2017-12-27T11:20:24.068Z,77.73
2017-12-27T11:21:23.989Z,77.73
2017-12-27T11:22:23.910Z,77.64
2017-12-27T11:23:23.825Z,78.30
2017-12-27T11:24:23.741Z,77.73
2017-12-27T11:25:23.653Z,77.54
2017-12-27T11:26:23.566Z,78.11
2017-12-27T11:27:23.474Z,77.58
2017-12-27T11:28:23.408Z,77.67
2017-12-27T11:29:23.326Z,77.29
2017-12-27T11:30:23.248Z,77.01
2017-12-27T11:31:23.152Z,75.59
2017-12-27T11:32:23.100Z,75.78
2017-12-27T11:33:22.995Z,76.34
2017-12-27T11:34:22.915Z,76.25
2017-12-27T11:35:22.842Z,76.54
2017-12-27T11:36:22.767Z,76.25
2017-12-27T11:37:22.667Z,76.25
2017-12-27T11:38:22.613Z,74.92
2017-12-27T11:39:22.508Z,75.11
2017-12-27T11:40:22.444Z,74.54
2017-12-27T11:41:22.339Z,75.02
2017-12-27T11:42:22.279Z,74.64
2017-12-27T11:43:22.195Z,73.31
2017-12-27T11:44:22.108Z,74.64
2017-12-27T11:45:22.027Z,74.64
2017-12-27T11:46:21.950Z,75.02
2017-12-27T11:47:21.857Z,74.96
2017-12-27T11:48:21.773Z,74.11
2017-12-27T11:49:21.700Z,73.35
2017-12-27T11:50:21.621Z,72.02
2017-12-27T11:51:21.550Z,71.64
2017-12-27T11:52:22.474Z,72.21
2017-12-27T11:53:21.364Z,72.30
2017-12-27T11:54:21.310Z,72.30
2017-12-27T11:55:21.212Z,72.68
2017-12-27T11:56:21.144Z,73.16
2017-12-27T11:57:21.050Z,72.59
2017-12-27T11:58:20.992Z,72.21
2017-12-27T11:59:20.955Z,72.78
2017-12-27T12:00:20.816Z,71.73
2017-12-27T12:01:20.737Z,72.40
2017-12-27T12:02:20.650Z,72.30
2017-12-27T12:03:20.592Z,72.21
2017-12-27T12:04:20.504Z,72.68
2017-12-27T12:05:20.430Z,72.49
2017-12-27T12:06:20.341Z,72.40
2017-12-27T12:07:20.283Z,72.45
2017-12-27T12:08:20.168Z,72.55
2017-12-27T12:09:20.089Z,72.55
2017-12-27T12:10:20.029Z,72.64
2017-12-27T12:11:19.936Z,72.27
2017-12-27T12:12:19.851Z,73.41
2017-12-27T12:13:19.768Z,73.41
2017-12-27T12:14:19.704Z,73.69
2017-12-27T12:15:19.601Z,73.97
2017-12-27T12:16:19.542Z,74.64
2017-12-27T12:17:19.453Z,75.21
2017-12-27T12:18:20.389Z,75.02
2017-12-27T12:19:19.302Z,74.83
2017-12-27T12:20:19.244Z,74.83
2017-12-27T12:21:19.140Z,74.92
2017-12-27T12:22:19.049Z,74.73
2017-12-27T12:23:18.958Z,74.51
2017-12-27T12:24:18.892Z,74.45
2017-12-27T12:25:18.804Z,73.88
2017-12-27T12:26:18.768Z,74.83
2017-12-27T12:27:18.640Z,74.64
2017-12-27T12:28:18.582Z,74.88
2017-12-27T12:29:18.478Z,76.03
2017-12-27T12:30:18.421Z,76.03
2017-12-27T12:31:18.326Z,75.17
2017-12-27T12:32:18.247Z,76.03
2017-12-27T12:33:18.164Z,76.59
2017-12-27T12:34:18.111Z,77.16
2017-12-27T12:35:17.996Z,78.49
2017-12-27T12:36:17.937Z,78.26
2017-12-27T12:37:17.848Z,78.77
2017-12-27T12:38:17.754Z,78.96
2017-12-27T12:39:17.667Z,79.87
2017-12-27T12:40:17.602Z,79.63
2017-12-27T12:41:17.532Z,78.58
2017-12-27T12:42:17.447Z,78.77
2017-12-27T12:43:17.357Z,78.20
2017-12-27T12:44:17.296Z,78.11
2017-12-27T12:45:17.213Z,77.54
2017-12-27T12:46:17.121Z,76.87
2017-12-27T12:47:17.080Z,77.97
2017-12-27T12:48:16.959Z,77.83
2017-12-27T12:49:16.866Z,77.92
2017-12-27T12:50:16.802Z,78.02
2017-12-27T12:51:16.702Z,78.02